Water Levels and Discharges  |  Reservoirs  |  Precipitation  |  Water quality Last site revision 26.09.2018 01:45
             
Water Levels and Discharges CAUTION: All data are without validation 26.09.2018 01:45:33
Any delay data CHMI stations is caused by the delay of data transfer between CHMI and the PLA, current data are on www.chmi.cz
All facilities Závod Jablonec nad Nisou Závod Pardubice Závod Roudnice nad Labem Selected Stations
Measurement summary  26.09.2018All facilities
Station River Graph Last measured
Qa
Q355
Remark  Indikace řazení
water levelDischarge
[cm] ([h])[m3.s-1] ([h])[m3.s-1][m3.s-1]
 Les Království  Labe 28 ( 01:30 ) 1.603 ( 01:30 ) 8.890 2.200
 Litice  Divoká Orlice 13 ( 01:30 ) 0.929 ( 01:30 ) 5.290 1.080
 Labská  Labe 12 ( 01:30 ) 0.429 ( 01:30 ) 2.690 0.525
 Lány  Chrudimka 14 ( 01:30 ) 0.059 ( 01:30 ) 0.320 0.031
 Rudolfov  Černá Nisa 2 ( 01:30 ) 0.041 ( 01:30 ) 0.274 0.058
 Rozkoš  Rozkošský potok 42 ( 01:15 ) 2.504 ( 01:15 ) 0.427 0.074
 Rychnov nad Kněžnou  Kněžná 2 ( 01:30 ) 0.031 ( 01:30 ) 0.903 0.062
 Litomyšl  Loučná 13 ( 01:30 ) 0.056 ( 01:30 ) 0.559 0.032
 Slaná  Oleška 30 ( 01:00 ) 0.258 ( 01:00 ) 1.510 0.177
 Zlíč  Úpa 34 ( 01:15 ) 1.597 ( 01:15 ) 6.310 1.630
 Josefův Důl  Kamenice 9 ( 01:45 ) 0.180 ( 01:45 ) 0.405 0.054
 Jedlová v Orlických horách  Bělá 20 ( 01:00 ) 0.241 ( 01:00 ) 0.621 0.102
 Jezdecká  Černá Desná 27 ( 01:30 ) 0.062 ( 01:30 ) 0.191 0.033
 Slatina nad Úpou  Úpa 23 ( 01:30 ) 1.610 ( 01:30 ) 6.700 1.700
 Klášterec nad Orlicí  Divoká Orlice 7 ( 01:30 ) 0.394 ( 01:30 ) 3.480 0.560
 Zaječice  Ležák 7 ( 01:30 ) 0.040 ( 01:30 ) 0.527 0.030
 Proseč nad Nisou  Lužická Nisa 14 ( 01:30 ) 0.233 ( 01:30 ) 1.100 0.267
 Opatovice nad Labem  Labe 224.85 * ( 01:30 ) 46.50 12.80
 Velký Dřevíč  Dřevíč 23 ( 01:30 ) 0.172 ( 01:30 ) 0.666 0.131
 Prosečné  Malé Labe 43 ( 01:30 ) 0.371 ( 01:30 ) 1.700 0.381
 Pařížov  Doubrava 6 ( 01:15 ) 0.180 ( 01:15 ) 1.760 0.191
 Peklo  Olešenka 37 ( 01:30 ) 0.142 ( 01:30 ) 0.505 0.091
 Plavy  Kamenice 24 ( 01:45 ) 0.813 ( 01:45 ) 3.680 0.830
 Padrty  Chrudimka 73 ( 01:30 ) 0.813 ( 01:30 ) 2.360 0.538
 Nekoř  Divoká Orlice 9 ( 01:30 ) 0.542 ( 01:30 ) 3.710 0.837
 Vrchlice  Vrchlice 9 ( 21:45 )
25.09.2018
0.031 ( 21:45 )
25.09.2018
0.319 0.030
 Přemilov  Chrudimka 60 ( 01:30 ) 0.244 ( 01:30 ) 2.190 0.263
 Malešov  Vrchlice 1 ( 01:30 ) 0.000 ( 01:30 ) 0.328 0.002
 Rohoznice  Bystřice 19 ( 01:30 ) 0.015 ( 01:30 ) 0.344 0.033
 Mníšek  Jeřice 2 ( 01:30 ) 0.001 ( 01:30 ) 0.500 0.130
 Mšeno  Mšenský potok 10 ( 01:30 ) 0.058 ( 01:30 ) 0.092 0.018
 Mezisvětí  Chrudimka 40 ( 01:30 ) 0.686 ( 01:30 ) 2.620 0.607
 Mlýnice  Albrechtický potok 4 ( 01:30 ) 0.014 ( 01:30 ) 0.098 0.012
 Jaroměř  Metuje 24 ( 01:30 ) 2.750 ( 01:30 ) 7.050 1.930
 Litoměřice  Labe 261 ( 01:30 ) 296.0 98.60
 Dolní Olešnice  Kalenský potok 15 ( 01:30 ) 0.110 ( 01:30 ) 0.633 0.136
 Svídnice  Chrudimka 8 ( 01:30 ) 0.489 ( 01:30 ) 2.740 0.519
 Dolní Štěpanice  Jizerka 73 ( 01:30 ) 0.296 ( 01:30 ) 1.290 0.251
 Střekov  Labe 141.42 * ( 01:30 ) 96.00 ( 01:30 ) 296.0 97.90
 Frýdlant  Řasnice 10 ( 01:00 ) 0.085 ( 01:00 ) 0.357 0.063
 Svídnice  Štítarský potok 28 ( 01:30 ) 0.018 ( 01:30 ) 0.492 0.029
 Špindlerův Mlýn  Labe 91 ( 01:30 ) 0.486 ( 01:30 ) 2.430 0.416
 Chocnějovice  Mohelka 42 ( 01:30 ) 0.572 ( 01:30 ) 1.660 0.345
 Uhlířská  Černá Nisa 32 ( 01:00 ) 0.013 ( 01:00 ) 0.057 0.009
 Brod  Labe 139 ( 01:30 ) 1.592 ( 01:30 ) 10.00 2.340
 Chotěvice  Pilníkovský potok 27 ( 01:30 ) 0.209 ( 01:30 ) 0.923 0.227
 Třebovice  Třebovka 14 ( 01:15 ) 0.043 ( 01:15 ) 0.445 0.080
 Český Brod  Šembera 2 ( 01:00 ) 0.149 0.014
 Častolovice  Bělá 14 ( 01:30 ) 0.226 ( 01:30 ) 2.610 0.317
 Hostinné  Čistá 33 ( 01:30 ) 0.160 ( 01:30 ) 1.300 0.242
 Souš  Černá Desná 19 ( 01:30 ) 0.139 ( 01:30 ) 0.315 0.014
 Spačice  Doubrava 43 ( 01:15 ) 0.066 ( 01:15 ) 1.740 0.175
 Sobkovice  Tichá Orlice 19 ( 01:30 ) 0.121 ( 01:30 ) 1.610 0.270
 Žákovec  Dědina 25 ( 01:30 ) 0.195 ( 01:30 ) 0.570 0.071
 Hostinné  Labe 6 ( 01:30 ) 0.720 ( 01:30 ) 6.080 1.340
 Žamberk  Rokytenka 12 ( 01:30 ) 0.034 ( 01:30 ) 0.893 0.098
 Hamry  Chrudimka 5 ( 01:30 ) 0.076 ( 01:30 ) 0.587 0.063
 Dolní Sytová  Jizera 32 ( 01:30 ) 1.542 ( 01:30 ) 8.860 2.130
 Hradec Králové  Orlice 227.85 * ( 00:45 ) 3.678 ( 00:45 ) 21.80 4.490
 Horní Lánov  Malé Labe 2 ( 01:30 ) 0.070 ( 01:30 ) 1.270 0.319
 Harcov  Harcovský potok 0 ( 01:30 ) 0.000 ( 01:30 ) 0.193 0.031
 Janov-Harrachov  Mumlava 75 ( 01:30 ) 0.274 ( 01:30 ) 2.050 0.415
 Otradov  Krounka -10 ( 01:30 ) 0.008 ( 01:30 ) 0.467 0.008 Hladina může být pod úrovní nuly vodočtu.
 Turnov  Jizera 7 ( 01:30 ) 18.50 5.000 Hladina může být pod úrovní nuly vodočtu.
 Lichkov  Tichá Orlice -8 ( 01:30 ) 0.019 ( 01:30 ) 1.090 0.216 Hladina může být pod úrovní nuly vodočtu.
 Kristiánov  Kamenice 2 ( 01:45 ) 0.033 ( 01:45 ) 0.262 0.059 Hladina může být pod úrovní nuly vodočtu.
 Chlumec nad Cidlinou  Cidlina 45 ( 01:00 ) 0.719 ( 01:00 ) 5.090 0.318 Hodnota průtoku pro vodní stav pod 40 cm je pouze orientační.
 Brandýs nad Labem  Labe 130 ( 01:15 ) 19.37 ( 01:15 ) 102.9 26.20 Průtok nezávisí na vodním stavu, vodní stav je ovlivněn vzdutím. Hodnoty průtoku jsou určeny součtem průtoků vodní elektrárny a jezu.
 Ústí nad Labem  Labe 142 ( 01:30 ) 97.10 ( 01:30 ) 296.0 97.90 Stanice ČHMÚ
 Úhřetice  Novohradka 31 ( 01:30 ) 0.112 ( 01:30 ) 2.520 0.185 Stanice ČHMÚ
 Vestřev  Labe 9 ( 01:30 ) 0.847 ( 01:30 ) 6.860 1.420 Stanice ČHMÚ
 Ústí nad Orlicí  Třebovka 24 ( 01:20 ) 0.125 ( 01:20 ) 1.090 0.215 Stanice ČHMÚ
 Přelouč  Labe 28 ( 01:30 ) 11.00 ( 01:30 ) 59.20 17.00 Stanice ČHMÚ
 Skuhrov  Bělá 16 ( 01:30 ) 0.086 ( 01:30 ) 0.980 0.191 Stanice ČHMÚ
 Sány  Cidlina 12 ( 01:20 ) 0.315 ( 01:20 ) 5.200 0.118 Stanice ČHMÚ
 Týniště nad Orlicí  Orlice 44 ( 01:20 ) 2.528 ( 01:20 ) 18.60 3.730 Stanice ČHMÚ
 Vestec  Mrlina 1 ( 01:20 ) 0.005 ( 01:20 ) 1.410 0.085 Stanice ČHMÚ
 Horní Maršov  Úpa 25 ( 01:30 ) 0.401 ( 01:30 ) 2.580 0.578 Stanice ČHMÚ
 Frýdlant  Smědá 5 ( 01:30 ) 0.339 ( 01:30 ) 3.180 0.781 Stanice ČHMÚ
 Železný Brod  Jizera 108 ( 01:30 ) 5.228 ( 01:30 ) 17.20 4.010 Stanice ČHMÚ
 Horní Staré Město  Úpa 18 ( 01:30 ) 0.771 ( 01:30 ) 4.010 1.130 Stanice ČHMÚ
 Kostelec nad Orlicí  Divoká Orlice 15 ( 01:30 ) 1.000 ( 01:30 ) 8.040 1.560 Stanice ČHMÚ
 Jaroměř  Labe 240 ( 01:30 ) 3.646 ( 01:30 ) 17.20 4.530 Stanice ČHMÚ
 Hronov  Metuje 9 ( 01:30 ) 0.503 ( 01:30 ) 2.770 0.806 Stanice ČHMÚ
 Dolní Libchavy  Tichá Orlice 13 ( 01:30 ) 0.604 ( 01:30 ) 4.330 0.932 Stanice ČHMÚ
 Cerekvice nad Loučnou  Loučná 40 ( 01:30 ) 0.548 ( 01:30 ) 1.790 0.380 Stanice ČHMÚ
 Bílý Potok  Smědá 4 ( 01:30 ) 0.027 ( 01:30 ) 0.939 0.180 Stanice ČHMÚ
 Bílek  Doubrava 19 ( 01:30 ) 0.033 ( 01:30 ) 0.684 0.041 Stanice ČHMÚ
 Chábory  Dědina 17 ( 01:30 ) 0.024 ( 01:30 ) 0.956 0.070 Stanice ČHMÚ
 Děčín  Labe 104 ( 01:30 ) 96.10 ( 01:30 ) 315.0 108.0 Stanice ČHMÚ
 Dašice  Loučná 69 ( 01:20 ) 0.528 ( 01:20 ) 3.600 1.290 Stanice ČHMÚ
 Čermná nad Orlicí  Tichá Orlice 24 ( 01:30 ) 1.286 ( 01:30 ) 7.340 1.920 Stanice ČHMÚ
 Nemošice  Chrudimka 35 ( 01:20 ) 0.402 ( 01:20 ) 5.840 0.896 Stanice ČHMÚ
 Němčice  Labe 55 ( 01:20 ) 9.430 ( 01:20 ) 47.10 13.00 Stanice ČHMÚ
 Mitrov  Dědina 23 ( 01:30 ) 0.175 ( 01:30 ) 2.110 0.129 Stanice ČHMÚ
 Nový Bydžov  Cidlina 10 ( 01:30 ) 0.112 ( 01:30 ) 2.740 0.239 Stanice ČHMÚ
 Otovice  Stěnava 40 ( 01:30 ) 0.451 ( 01:30 ) 1.990 0.441 Stanice ČHMÚ
 Orlické Záhoří  Divoká Orlice 4 ( 01:30 ) 0.069 ( 01:30 ) 1.130 0.165 Stanice ČHMÚ
 Vraňany  Vltava 7 ( 01:30 ) 50.54 ( 01:30 ) 152.0 28.00 Stanice ČHMÚ
 Meziměstí  Stěnava 15 ( 01:30 ) 0.142 ( 01:30 ) 0.766 0.164 Stanice ČHMÚ
 Liberec  Lužická Nisa 29 ( 01:30 ) 0.536 ( 01:30 ) 2.050 0.559 Stanice ČHMÚ
 Lázně Bělohrad  Javorka 18 ( 01:30 ) 0.073 ( 01:30 ) 0.380 0.099 Stanice ČHMÚ
 Krčín  Metuje 15 ( 01:20 ) 0.825 ( 01:20 ) 5.330 1.440 Stanice ČHMÚ
 Žleby  Doubrava 17 ( 01:20 ) 0.158 ( 01:20 ) 2.760 0.280 Stanice ČHMÚ
 Maršov nad Metují  Metuje 25 ( 01:30 ) 0.325 ( 01:30 ) 1.030 0.315 Stanice ČHMÚ
 Luže  Novohradka 20 ( 01:30 ) 0.199 ( 01:30 ) 1.220 0.120 Stanice ČHMÚ
 Louny  Ohře 182 ( 01:30 ) 14.74 ( 01:30 ) 37.30 7.680 Stanice ČHMÚ
 Předměřice  Jizera 142 ( 01:30 ) 13.56 ( 01:30 ) 24.30 5.610 Stanice ČHMÚ
 Bakov nad Jizerou  Jizera 131 ( 01:30 ) 5.618 ( 01:30 ) 23.30 6.340 Stanice ČHMÚ
 Slatina nad Zdobnicí  Zdobnice 58 ( 01:30 ) 0.280 ( 01:30 ) 1.950 0.303 Stanice ČHMÚ - do konce září budou prováděny úpravy v korytě - možnost ovlivnění dat.
 Předlánce  Smědá 7 ( 01:30 ) 0.750 ( 01:30 ) 4.270 1.062 Stanice ČHMÚ - hladina může být pod úrovní nuly vodočtu.
 Hrádek nad Nisou  Lužická Nisa -2 ( 01:30 ) 1.330 ( 01:30 ) 5.460 1.630 Stanice ČHMÚ - hladina může být pod úrovní nuly vodočtu.
 Jičín  Cidlina -2 ( 01:30 ) 0.001 ( 01:30 ) 0.329 0.020 Stanice ČHMÚ - hladina může být pod úrovní nuly vodočtu.
 Mělník  Labe 255 ( 01:30 ) 80.00 ( 07:00 )
25.09.2018
256.0 82.20 Stanice ČHMÚ - průtok nezávisí na vodním stavu, vodní stav je ovlivněn vzdutím. Hodnoty průtoku jsou určeny součtem průtoků v Labi a Vltavě.
 Kostelec nad Labem  Labe 402 ( 01:30 ) 29.00 ( 01:30 ) 104.0 26.00 Stanice ČHMÚ - průtok nezávisí na vodním stavu, vodní stav je ovlivněn vzdutím. Hodnoty průtoku jsou určeny součtem průtoků vodní elektrárny a jezu. Průtoky odvozené měrnou křivkou jsou k dispozici od vodního stavu 601 cm.
 Nymburk  Labe 16.32 ( 00:30 ) 73.70 19.30 Stanice ČHMÚ - průtok nezávisí na vodním stavu, vodní stav je ovlivněn vzdutím. Hodnoty průtoku jsou určeny součtem průtoků vodní elektrárny, jezu a limnigrafu Vestec.
 Jablonec nad Jizerou  Jizera 5 ( 01:30 ) 1.330 ( 01:30 ) 5.620 1.250 Stanice ČHMÚ - z technických důvodů nelze měřit záporné stavy, které se zde během současného suchého počasí vyskytují.
 Plaňany  Výrovka 13 ( 01:30 ) 0.090 ( 01:30 ) 0.764 0.105 Stanice ČHMÚ.
 Fojtka  Fojtka 0.135 0.024 Z důvodu stavby byl vypuštěn vývar a odstraněna sonda na odtoku.
* [m asl]
Qaaverage discharge
Q355average daily discharge reached or exceeded 355 days a year
Tyto informace jsou dostupné i přes aplikaci pro mobilní telefony s OS Android (Stavy a průtoky), Windows (Stavy a průtoky)
  Povodí Labe, státní podnik © 2018 The system uses also data from measuring stations of   Czech Hydrometeorological Institute © 2018 Application developed by   MGE Data s.r.o. © 1996 - 2014